createdAt,value
2018-03-01T00:01:13.697Z,63.00
2018-03-01T00:03:41.506Z,63.30
2018-03-01T00:06:09.060Z,63.30
2018-03-01T00:08:36.678Z,63.10
2018-03-01T00:11:04.238Z,63.70
2018-03-01T00:13:32.578Z,64.00
2018-03-01T00:16:00.893Z,63.90
2018-03-01T00:18:28.449Z,63.60
2018-03-01T00:20:56.003Z,63.60
2018-03-01T00:23:23.897Z,63.70
2018-03-01T00:25:52.221Z,63.50
2018-03-01T00:28:19.774Z,63.50
2018-03-01T00:30:48.048Z,63.50
2018-03-01T00:33:15.607Z,63.70
2018-03-01T00:35:43.242Z,63.90
2018-03-01T00:38:10.835Z,63.50
2018-03-01T00:40:38.397Z,63.80
2018-03-01T00:43:06.011Z,64.00
2018-03-01T00:45:34.336Z,63.90
2018-03-01T00:48:02.190Z,63.90
2018-03-01T00:50:30.200Z,63.40
2018-03-01T00:52:57.823Z,63.50
2018-03-01T00:55:25.383Z,63.70
2018-03-01T00:57:53.156Z,63.40
2018-03-01T01:00:20.738Z,62.70
2018-03-01T01:02:48.294Z,62.80
2018-03-01T01:05:16.372Z,63.30
2018-03-01T01:07:43.929Z,63.20
2018-03-01T01:10:11.522Z,63.40
2018-03-01T01:12:40.194Z,64.00
2018-03-01T01:15:08.538Z,64.30
2018-03-01T01:17:36.205Z,64.20
2018-03-01T01:20:03.977Z,64.00
2018-03-01T01:22:31.538Z,63.70
2018-03-01T01:24:59.104Z,64.00
2018-03-01T01:27:26.745Z,63.60
2018-03-01T01:29:55.267Z,62.90
2018-03-01T01:32:23.887Z,63.60
2018-03-01T01:34:51.887Z,63.50
2018-03-01T01:37:19.493Z,63.90
2018-03-01T01:39:47.814Z,64.10
2018-03-01T01:42:16.228Z,64.10
2018-03-01T01:44:44.577Z,63.50
2018-03-01T01:47:12.182Z,63.50
2018-03-01T01:49:40.559Z,63.90
2018-03-01T01:52:08.895Z,63.00
2018-03-01T01:54:36.543Z,63.00
2018-03-01T01:57:04.146Z,63.20
2018-03-01T01:59:31.728Z,63.20
2018-03-01T02:01:59.290Z,63.20
2018-03-01T02:04:27.214Z,63.10
2018-03-01T02:06:55.778Z,63.20
2018-03-01T02:09:23.367Z,63.10
2018-03-01T02:11:51.472Z,62.80
2018-03-01T02:14:19.029Z,62.40
2018-03-01T02:16:46.632Z,62.40
2018-03-01T02:19:15.255Z,63.40
2018-03-01T02:21:43.587Z,62.70
2018-03-01T02:24:11.154Z,62.70
2018-03-01T02:26:38.916Z,62.60
2018-03-01T02:29:06.667Z,62.80
2018-03-01T02:31:34.230Z,63.10
2018-03-01T02:34:02.067Z,62.80
2018-03-01T02:36:33.369Z,63.10
2018-03-01T02:39:00.951Z,62.90
2018-03-01T02:41:29.523Z,63.00
2018-03-01T02:43:57.223Z,63.30
2018-03-01T02:46:25.006Z,63.60
2018-03-01T02:48:52.706Z,63.60
2018-03-01T02:51:20.275Z,64.00
2018-03-01T02:53:47.841Z,64.10
2018-03-01T02:56:16.514Z,64.40
2018-03-01T02:58:44.855Z,64.30
2018-03-01T03:01:13.061Z,64.30
2018-03-01T03:03:41.643Z,64.60
2018-03-01T03:06:09.525Z,64.50
2018-03-01T03:08:38.010Z,64.50
2018-03-01T03:11:05.953Z,64.40
2018-03-01T03:13:34.303Z,64.20
2018-03-01T03:16:01.859Z,64.30
2018-03-01T03:18:30.222Z,64.20
2018-03-01T03:20:57.806Z,64.20
2018-03-01T03:23:25.361Z,64.30
2018-03-01T03:25:53.367Z,64.40
2018-03-01T03:28:20.931Z,64.40
2018-03-01T03:30:49.064Z,64.20
2018-03-01T03:33:16.975Z,63.90
2018-03-01T03:35:44.539Z,63.90
2018-03-01T03:38:12.864Z,63.80
2018-03-01T03:40:40.510Z,63.70
2018-03-01T03:43:08.742Z,63.80
2018-03-01T03:45:36.309Z,64.00
2018-03-01T03:48:04.784Z,64.50
2018-03-01T03:50:32.359Z,64.60
2018-03-01T03:52:59.930Z,64.70
2018-03-01T03:55:27.962Z,64.80
2018-03-01T03:57:55.563Z,64.90
2018-03-01T04:00:23.122Z,65.10
2018-03-01T04:02:51.576Z,65.30
2018-03-01T04:05:19.208Z,65.30
2018-03-01T04:07:46.954Z,65.60
2018-03-01T04:10:14.745Z,65.60
2018-03-01T04:12:42.311Z,65.70
2018-03-01T04:15:09.898Z,65.60
2018-03-01T04:17:38.574Z,65.90
2018-03-01T04:20:07.219Z,66.00
2018-03-01T04:22:34.780Z,66.00
2018-03-01T04:25:02.575Z,66.10
2018-03-01T04:27:30.142Z,66.10
2018-03-01T04:29:57.701Z,65.70
2018-03-01T04:32:26.473Z,66.50
2018-03-01T04:34:54.032Z,66.50
2018-03-01T04:37:21.603Z,66.50
2018-03-01T04:39:49.400Z,66.30
2018-03-01T04:42:16.977Z,66.30
2018-03-01T04:44:44.551Z,66.40
2018-03-01T04:47:13.735Z,66.50
2018-03-01T04:49:41.304Z,66.50
2018-03-01T04:52:08.865Z,66.40
2018-03-01T04:54:36.519Z,66.40
2018-03-01T04:57:04.934Z,66.10
2018-03-01T04:59:32.498Z,66.00
2018-03-01T05:02:00.362Z,66.20
2018-03-01T05:04:27.934Z,66.00
2018-03-01T05:06:55.498Z,66.00
2018-03-01T05:09:24.383Z,66.20
2018-03-01T05:11:52.144Z,66.00
2018-03-01T05:14:20.582Z,66.00
2018-03-01T05:16:49.062Z,65.90
2018-03-01T05:19:16.651Z,66.10
2018-03-01T05:21:45.830Z,66.10
2018-03-01T05:24:13.624Z,65.90
2018-03-01T05:26:41.190Z,66.00
2018-03-01T05:29:08.762Z,66.10
2018-03-01T05:31:43.571Z,65.90
2018-03-01T05:34:11.722Z,65.70
2018-03-01T05:36:39.279Z,65.90
2018-03-01T05:39:07.147Z,65.80
2018-03-01T05:41:34.710Z,65.40
2018-03-01T05:44:02.568Z,65.40
2018-03-01T05:46:30.359Z,65.50
2018-03-01T05:48:57.935Z,65.40
2018-03-01T05:51:25.511Z,65.40
2018-03-01T05:53:53.454Z,65.60
2018-03-01T05:56:22.649Z,65.40
2018-03-01T05:58:50.206Z,65.50
2018-03-01T06:01:18.541Z,65.30
2018-03-01T06:03:48.506Z,65.20
2018-03-01T06:06:16.854Z,65.50
2018-03-01T06:08:44.662Z,65.50
2018-03-01T06:11:12.987Z,65.90
2018-03-01T06:13:40.542Z,66.50
2018-03-01T06:16:08.150Z,66.20
2018-03-01T06:18:35.718Z,66.00
2018-03-01T06:21:04.124Z,66.10
2018-03-01T06:23:31.918Z,66.00
2018-03-01T06:25:59.484Z,66.00
2018-03-01T06:28:27.060Z,66.00
2018-03-01T06:30:55.047Z,65.70
2018-03-01T06:33:23.514Z,65.80
2018-03-01T06:35:51.078Z,65.70
2018-03-01T06:38:19.034Z,65.20
2018-03-01T06:40:46.626Z,65.70
2018-03-01T06:43:14.196Z,65.70
2018-03-01T06:45:42.437Z,65.70
2018-03-01T06:48:09.998Z,66.10
2018-03-01T06:50:37.579Z,66.00
2018-03-01T06:53:05.945Z,66.00
2018-03-01T06:55:33.518Z,66.00
2018-03-01T06:58:01.930Z,65.70
2018-03-01T07:00:29.898Z,65.80
2018-03-01T07:02:57.922Z,65.70
2018-03-01T07:05:26.250Z,65.00
2018-03-01T07:07:57.138Z,65.00
2018-03-01T07:10:28.827Z,65.50
2018-03-01T07:12:59.516Z,65.30
2018-03-01T07:15:27.079Z,65.30
2018-03-01T07:17:54.640Z,65.50
2018-03-01T07:20:23.001Z,65.50
2018-03-01T07:22:50.627Z,65.40
2018-03-01T07:25:18.214Z,65.10
2018-03-01T07:27:46.409Z,65.10
2018-03-01T07:30:13.970Z,64.90
2018-03-01T07:32:41.526Z,64.70
2018-03-01T07:35:12.647Z,64.60
2018-03-01T07:37:40.730Z,64.80
2018-03-01T07:40:08.300Z,63.80
2018-03-01T07:42:35.859Z,64.00
2018-03-01T07:45:03.718Z,64.00
2018-03-01T07:47:31.443Z,63.60
2018-03-01T07:49:59.002Z,64.20
2018-03-01T07:52:26.920Z,63.70
2018-03-01T07:54:54.482Z,63.60
2018-03-01T07:57:23.264Z,63.20
2018-03-01T07:59:52.546Z,63.20
2018-03-01T08:02:20.127Z,63.60
2018-03-01T08:04:48.397Z,63.30
2018-03-01T08:07:15.965Z,63.80
2018-03-01T08:09:44.530Z,64.00
2018-03-01T08:12:13.931Z,63.90
2018-03-01T08:14:41.497Z,63.60
2018-03-01T08:17:09.045Z,63.60
2018-03-01T08:19:39.082Z,62.70
2018-03-01T08:22:08.373Z,62.40
2018-03-01T08:24:35.932Z,61.70
2018-03-01T08:27:06.716Z,61.80
2018-03-01T08:29:34.554Z,61.10
2018-03-01T08:32:09.967Z,60.90
2018-03-01T08:34:37.526Z,60.80
2018-03-01T08:37:05.127Z,61.40
2018-03-01T08:39:32.679Z,61.20
2018-03-01T08:42:00.239Z,61.40
2018-03-01T08:44:28.858Z,61.10
2018-03-01T08:46:56.524Z,61.10
2018-03-01T08:49:24.096Z,60.50
2018-03-01T08:51:52.078Z,61.00
2018-03-01T08:54:19.728Z,61.20
2018-03-01T08:56:47.334Z,61.30
2018-03-01T08:59:15.046Z,61.40
2018-03-01T09:01:42.609Z,61.00
2018-03-01T09:04:10.165Z,60.70
2018-03-01T09:06:41.123Z,60.80
2018-03-01T09:09:14.613Z,60.90
2018-03-01T09:11:43.413Z,61.00
2018-03-01T09:14:10.970Z,60.10
2018-03-01T09:16:40.042Z,61.20
2018-03-01T09:19:07.897Z,61.10
2018-03-01T09:21:35.462Z,61.00
2018-03-01T09:24:03.015Z,61.10
2018-03-01T09:26:31.029Z,60.60
2018-03-01T09:28:58.850Z,60.10
2018-03-01T09:31:26.433Z,59.50
2018-03-01T09:33:54.050Z,59.20
2018-03-01T09:36:21.608Z,60.00
2018-03-01T09:38:49.167Z,60.80
2018-03-01T09:41:16.828Z,59.90
2018-03-01T09:43:44.393Z,60.10
2018-03-01T09:46:11.950Z,60.20
2018-03-01T09:48:39.557Z,60.00
2018-03-01T09:51:07.127Z,60.40
2018-03-01T09:53:34.706Z,59.70
2018-03-01T09:56:03.094Z,59.50
2018-03-01T09:58:30.658Z,59.50
2018-03-01T10:00:58.283Z,59.30
2018-03-01T10:03:25.926Z,59.50
2018-03-01T10:05:53.773Z,59.90
2018-03-01T10:08:21.374Z,60.10
2018-03-01T10:10:52.518Z,59.60
2018-03-01T10:13:20.075Z,59.60
2018-03-01T10:15:47.630Z,59.20
2018-03-01T10:18:15.401Z,58.80
2018-03-01T10:20:42.958Z,58.90
2018-03-01T10:23:10.518Z,58.60
2018-03-01T10:25:38.274Z,59.00
2018-03-01T10:28:05.835Z,59.60
2018-03-01T10:30:33.393Z,60.10
2018-03-01T10:33:00.996Z,60.20
2018-03-01T10:35:28.567Z,60.20
2018-03-01T10:37:56.128Z,59.60
2018-03-01T10:40:24.144Z,59.50
2018-03-01T10:42:51.775Z,59.50
2018-03-01T10:45:19.329Z,59.10
2018-03-01T10:47:47.136Z,59.00
2018-03-01T10:50:14.704Z,59.40
2018-03-01T10:52:42.269Z,59.00
2018-03-01T10:55:10.734Z,58.70
2018-03-01T10:57:38.801Z,58.60
2018-03-01T11:00:09.515Z,57.90
2018-03-01T11:02:37.080Z,58.30
2018-03-01T11:05:06.292Z,57.30
2018-03-01T11:07:33.855Z,58.00
2018-03-01T11:10:02.114Z,58.40
2018-03-01T11:12:33.778Z,58.10
2018-03-01T11:15:01.329Z,58.70
2018-03-01T11:17:28.888Z,59.00
2018-03-01T11:19:56.990Z,59.10
2018-03-01T11:22:24.563Z,58.40
2018-03-01T11:24:52.136Z,59.10
2018-03-01T11:27:19.756Z,58.40
2018-03-01T11:29:47.578Z,58.60
2018-03-01T11:32:15.131Z,58.70
2018-03-01T11:34:42.945Z,58.50
2018-03-01T11:37:11.475Z,58.70
2018-03-01T11:39:39.078Z,58.50
2018-03-01T11:42:06.938Z,58.00
2018-03-01T11:44:34.498Z,57.20
2018-03-01T11:47:02.058Z,58.50
2018-03-01T11:49:29.666Z,59.00
2018-03-01T11:51:57.225Z,58.90
2018-03-01T11:54:24.805Z,59.00
2018-03-01T11:56:52.720Z,59.80
2018-03-01T11:59:20.283Z,59.20
2018-03-01T12:01:47.845Z,58.80
2018-03-01T12:04:15.738Z,58.90
2018-03-01T12:06:44.061Z,59.50
2018-03-01T12:09:11.631Z,59.50
2018-03-01T12:11:45.383Z,59.10
2018-03-01T12:14:12.938Z,58.20
2018-03-01T12:16:41.780Z,59.30
2018-03-01T12:19:11.902Z,59.30
2018-03-01T12:21:39.482Z,59.90
2018-03-01T12:24:08.810Z,60.10
2018-03-01T12:26:38.997Z,59.60
2018-03-01T12:29:06.610Z,59.50
2018-03-01T12:31:34.285Z,59.60
2018-03-01T12:34:01.859Z,59.40
2018-03-01T12:36:29.556Z,60.10
2018-03-01T12:38:59.346Z,59.10
2018-03-01T12:41:26.899Z,59.00
2018-03-01T12:43:58.881Z,58.30
2018-03-01T12:46:30.418Z,58.30
2018-03-01T12:48:59.234Z,57.50
2018-03-01T12:51:27.562Z,56.40
2018-03-01T12:53:56.757Z,56.40
2018-03-01T12:56:25.680Z,56.20
2018-03-01T12:58:53.230Z,56.40
2018-03-01T13:01:20.796Z,56.60
2018-03-01T13:03:52.261Z,56.60
2018-03-01T13:06:22.091Z,56.50
2018-03-01T13:08:50.406Z,55.90
2018-03-01T13:11:23.580Z,55.80
2018-03-01T13:13:51.130Z,54.80
2018-03-01T13:16:18.683Z,54.30
2018-03-01T13:18:47.131Z,44.10
2018-03-01T13:21:14.681Z,44.10
2018-03-01T13:23:42.427Z,39.70
2018-03-01T13:26:10.026Z,37.40
2018-03-01T13:28:39.992Z,36.10
2018-03-01T13:31:13.916Z,35.50
2018-03-01T13:33:45.185Z,35.00
2018-03-01T13:36:12.752Z,34.60
2018-03-01T13:38:40.343Z,34.80
2018-03-01T13:41:08.167Z,34.00
2018-03-01T13:43:35.741Z,33.90
2018-03-01T13:46:05.810Z,35.00
2018-03-01T13:48:33.602Z,35.50
2018-03-01T13:51:01.248Z,33.70
2018-03-01T13:53:28.818Z,35.10
2018-03-01T13:55:56.638Z,36.20
2018-03-01T13:58:24.204Z,39.30
2018-03-01T14:00:51.754Z,42.80
2018-03-01T14:03:19.611Z,44.70
2018-03-01T14:05:55.585Z,46.80
2018-03-01T14:08:23.186Z,46.80
2018-03-01T14:10:59.186Z,47.50
2018-03-01T14:13:51.016Z,40.40
2018-03-01T14:16:19.340Z,41.50
2018-03-01T14:18:59.820Z,41.50
2018-03-01T14:21:36.232Z,43.20
2018-03-01T14:24:18.284Z,45.10
2018-03-01T14:26:48.554Z,46.00
2018-03-01T14:29:35.999Z,46.80
2018-03-01T14:32:06.356Z,48.60
2018-03-01T14:34:34.452Z,48.70
2018-03-01T14:39:36.030Z,50.30
2018-03-01T14:42:04.354Z,48.70
2018-03-01T14:44:37.823Z,48.60
2018-03-01T14:47:05.376Z,48.10
2018-03-01T14:49:32.951Z,44.00
2018-03-01T14:52:00.862Z,44.00
2018-03-01T14:54:28.429Z,42.90
2018-03-01T14:56:57.494Z,44.70
2018-03-01T14:59:25.488Z,44.70
2018-03-01T15:01:53.045Z,45.60
2018-03-01T15:04:20.776Z,48.00
2018-03-01T15:06:48.393Z,48.30
2018-03-01T15:09:15.954Z,49.80
2018-03-01T15:11:44.271Z,50.90
2018-03-01T15:14:11.903Z,50.80
2018-03-01T15:16:40.313Z,51.10
2018-03-01T15:19:07.869Z,51.10
2018-03-01T15:21:35.462Z,50.90
2018-03-01T15:24:03.017Z,51.50
2018-03-01T15:26:30.576Z,52.10
2018-03-01T15:29:03.405Z,51.90
2018-03-01T15:31:33.162Z,51.50
2018-03-01T15:34:00.731Z,51.30
2018-03-01T15:36:28.464Z,51.70
2018-03-01T15:38:56.099Z,52.40
2018-03-01T15:41:24.427Z,52.40
2018-03-01T15:43:54.500Z,52.40
2018-03-01T15:46:22.080Z,52.40
2018-03-01T15:48:49.630Z,52.40
2018-03-01T15:51:25.226Z,52.30
2018-03-01T15:53:53.705Z,52.20
2018-03-01T15:56:22.227Z,52.60
2018-03-01T15:58:53.966Z,52.90
2018-03-01T16:01:22.310Z,52.80
2018-03-01T16:03:50.806Z,52.80
2018-03-01T16:06:25.121Z,53.50
2018-03-01T16:08:52.669Z,53.80
2018-03-01T16:11:20.237Z,53.80
2018-03-01T16:13:51.097Z,54.10
2018-03-01T16:16:21.339Z,54.80
2018-03-01T16:18:48.901Z,55.00
2018-03-01T16:21:17.242Z,54.90
2018-03-01T16:23:44.799Z,54.40
2018-03-01T16:26:12.358Z,55.10
2018-03-01T16:28:40.222Z,55.40
2018-03-01T16:31:07.780Z,55.70
2018-03-01T16:33:35.410Z,55.60
2018-03-01T16:36:03.085Z,56.60
2018-03-01T16:38:30.630Z,57.20
2018-03-01T16:40:58.287Z,57.10
2018-03-01T16:43:25.994Z,57.00
2018-03-01T16:45:53.550Z,57.00
2018-03-01T16:48:21.106Z,57.30
2018-03-01T16:50:48.987Z,57.40
2018-03-01T16:53:17.423Z,58.50
2018-03-01T16:55:47.438Z,58.00
2018-03-01T16:58:15.441Z,58.00
2018-03-01T17:00:42.996Z,58.10
2018-03-01T17:03:10.542Z,58.00
2018-03-01T17:05:38.283Z,57.80
2018-03-01T17:08:05.833Z,58.00
2018-03-01T17:10:33.434Z,58.40
2018-03-01T17:13:01.206Z,58.30
2018-03-01T17:15:29.548Z,59.40
2018-03-01T17:17:57.495Z,58.80
2018-03-01T17:20:25.348Z,59.10
2018-03-01T17:22:52.910Z,59.30
2018-03-01T17:25:21.226Z,59.60
2018-03-01T17:27:49.831Z,59.60
2018-03-01T17:30:17.463Z,59.60
2018-03-01T17:32:45.015Z,59.90
2018-03-01T17:35:12.638Z,59.80
2018-03-01T17:37:40.980Z,60.10
2018-03-01T17:40:11.417Z,60.10
2018-03-01T17:42:42.369Z,59.90
2018-03-01T17:45:09.942Z,60.20
2018-03-01T17:47:37.501Z,60.10
2018-03-01T17:50:08.943Z,60.00
2018-03-01T17:52:39.739Z,60.90
2018-03-01T17:55:07.301Z,59.80
2018-03-01T17:57:35.670Z,60.00
2018-03-01T18:00:03.230Z,59.70
2018-03-01T18:02:30.788Z,60.30
2018-03-01T18:05:01.421Z,60.70
2018-03-01T18:07:28.976Z,60.40
2018-03-01T18:09:56.532Z,60.00
2018-03-01T18:12:27.210Z,60.40
2018-03-01T18:14:55.566Z,60.80
2018-03-01T18:17:25.590Z,61.70
2018-03-01T18:19:53.160Z,60.90
2018-03-01T18:22:20.719Z,61.30
2018-03-01T18:24:50.451Z,61.20
2018-03-01T18:27:18.781Z,62.20
2018-03-01T18:29:46.344Z,62.20
2018-03-01T18:32:14.253Z,62.40
2018-03-01T18:34:42.587Z,63.30
2018-03-01T18:37:10.136Z,63.20
2018-03-01T18:39:47.465Z,62.90
2018-03-01T18:42:15.021Z,63.30
2018-03-01T18:44:44.397Z,63.30
2018-03-01T18:47:12.707Z,63.10
2018-03-01T18:49:40.262Z,63.20
2018-03-01T18:52:12.250Z,63.20
2018-03-01T18:54:40.013Z,63.80
2018-03-01T18:57:08.330Z,63.70
2018-03-01T18:59:35.894Z,63.60
2018-03-01T19:02:03.515Z,63.70
2018-03-01T19:04:31.199Z,63.70
2018-03-01T19:06:58.742Z,63.60
2018-03-01T19:09:26.771Z,63.50
2018-03-01T19:11:54.329Z,63.40
2018-03-01T19:14:21.881Z,63.70
2018-03-01T19:16:49.957Z,63.60
2018-03-01T19:19:17.508Z,63.70
2018-03-01T19:21:45.079Z,63.90
2018-03-01T19:24:12.958Z,63.90
2018-03-01T19:26:40.514Z,64.20
2018-03-01T19:29:08.065Z,64.40
2018-03-01T19:31:35.761Z,64.10
2018-03-01T19:34:04.083Z,64.30
2018-03-01T19:36:31.653Z,64.20
2018-03-01T19:38:59.321Z,64.40
2018-03-01T19:41:26.869Z,64.60
2018-03-01T19:43:54.425Z,64.40
2018-03-01T19:46:22.310Z,64.90
2018-03-01T19:48:49.867Z,65.60
2018-03-01T19:51:17.593Z,65.80
2018-03-01T19:53:45.297Z,65.60
2018-03-01T19:56:12.908Z,65.70
2018-03-01T19:58:40.447Z,65.50
2018-03-01T20:01:08.842Z,66.20
2018-03-01T20:03:36.401Z,66.20
2018-03-01T20:06:03.966Z,65.90
2018-03-01T20:08:31.854Z,66.20
2018-03-01T20:10:59.406Z,66.40
2018-03-01T20:13:26.968Z,66.80
2018-03-01T20:15:54.866Z,66.40
2018-03-01T20:18:23.203Z,66.40
2018-03-01T20:20:51.516Z,66.80
2018-03-01T20:23:19.328Z,66.70
2018-03-01T20:25:47.001Z,66.50
2018-03-01T20:28:14.549Z,66.90
2018-03-01T20:30:42.301Z,67.60
2018-03-01T20:33:10.816Z,67.50
2018-03-01T20:35:38.450Z,67.40
2018-03-01T20:38:06.173Z,67.90
2018-03-01T20:40:33.912Z,67.60
2018-03-01T20:43:01.590Z,67.70
2018-03-01T20:45:29.465Z,67.80
2018-03-01T20:47:57.022Z,67.80
2018-03-01T20:50:24.582Z,67.80
2018-03-01T20:52:52.459Z,67.60
2018-03-01T20:55:20.059Z,67.60
2018-03-01T20:57:47.619Z,67.80
2018-03-01T21:00:15.286Z,67.50
2018-03-01T21:02:42.848Z,67.50
2018-03-01T21:05:10.557Z,67.80
2018-03-01T21:07:38.384Z,67.70
2018-03-01T21:10:14.682Z,67.70
2018-03-01T21:12:46.077Z,67.80
2018-03-01T21:15:15.743Z,67.80
2018-03-01T21:17:43.985Z,68.00
2018-03-01T21:20:11.561Z,67.60
2018-03-01T21:22:40.105Z,67.70
2018-03-01T21:25:07.662Z,67.60
2018-03-01T21:27:37.161Z,67.60
2018-03-01T21:30:06.834Z,67.30
2018-03-01T21:32:34.461Z,67.20
2018-03-01T21:35:02.014Z,67.20
2018-03-01T21:37:35.610Z,67.20
2018-03-01T21:40:05.890Z,67.20
2018-03-01T21:42:34.413Z,67.10
2018-03-01T21:45:06.319Z,67.60
2018-03-01T21:47:33.893Z,66.80
2018-03-01T21:50:02.239Z,66.10
2018-03-01T21:52:31.113Z,66.10
2018-03-01T21:54:58.676Z,66.20
2018-03-01T21:57:26.263Z,66.10
2018-03-01T21:59:57.437Z,66.30
2018-03-01T22:02:29.149Z,66.60
2018-03-01T22:05:00.118Z,66.60
2018-03-01T22:07:28.450Z,66.70
2018-03-01T22:09:56.009Z,66.60
2018-03-01T22:12:23.587Z,66.90
2018-03-01T22:14:51.148Z,67.00
2018-03-01T22:17:18.786Z,67.20
2018-03-01T22:19:46.669Z,67.20
2018-03-01T22:22:14.221Z,67.40
2018-03-01T22:24:41.777Z,67.50
2018-03-01T22:27:09.512Z,67.70
2018-03-01T22:29:37.914Z,67.70
2018-03-01T22:32:05.484Z,67.70
2018-03-01T22:34:33.281Z,67.60
2018-03-01T22:37:00.845Z,67.80
2018-03-01T22:39:31.668Z,68.80
2018-03-01T22:42:01.138Z,68.40
2018-03-01T22:44:28.702Z,68.60
2018-03-01T22:46:58.418Z,68.60
2018-03-01T22:49:25.988Z,68.50
2018-03-01T22:51:54.835Z,68.60
2018-03-01T22:54:25.849Z,68.60
2018-03-01T22:56:54.181Z,68.80
2018-03-01T22:59:21.737Z,68.80
2018-03-01T23:01:50.053Z,68.40
2018-03-01T23:04:17.611Z,68.30
2018-03-01T23:06:46.838Z,68.00
2018-03-01T23:09:15.174Z,68.10
2018-03-01T23:11:42.725Z,68.10
2018-03-01T23:14:10.280Z,68.10
2018-03-01T23:16:38.487Z,68.00
2018-03-01T23:19:06.110Z,67.70
2018-03-01T23:21:33.663Z,67.50
2018-03-01T23:24:01.318Z,67.00
2018-03-01T23:26:28.885Z,67.20
2018-03-01T23:28:56.445Z,67.00
2018-03-01T23:31:24.254Z,66.90
2018-03-01T23:33:52.590Z,66.60
2018-03-01T23:36:20.350Z,66.50
2018-03-01T23:38:48.145Z,66.40
2018-03-01T23:41:15.698Z,66.30
2018-03-01T23:43:43.339Z,66.10
2018-03-01T23:46:10.966Z,66.10
2018-03-01T23:48:39.510Z,66.30
2018-03-01T23:51:07.066Z,65.90
2018-03-01T23:53:34.660Z,65.80
2018-03-01T23:56:03.320Z,65.20
2018-03-01T23:58:30.963Z,65.30
